createdAt,value
2022-08-12T00:00:35.435Z,2.60
2022-08-12T00:03:21.238Z,2.10
2022-08-12T00:06:07.969Z,2.42
2022-08-12T00:08:54.477Z,2.72
2022-08-12T00:11:40.258Z,2.33
2022-08-12T00:14:25.609Z,2.35
2022-08-12T00:17:11.006Z,2.47
2022-08-12T00:19:56.394Z,2.33
2022-08-12T00:22:42.077Z,2.67
2022-08-12T00:25:51.251Z,2.20
2022-08-12T00:28:33.129Z,2.60
2022-08-12T00:34:23.445Z,2.75
2022-08-12T00:37:13.088Z,2.20
2022-08-12T00:39:59.700Z,2.47
2022-08-12T00:42:26.845Z,1.80
2022-08-12T00:44:53.977Z,2.65
2022-08-12T00:47:24.104Z,2.35
2022-08-12T00:49:52.335Z,2.35
2022-08-12T00:52:19.584Z,2.40
2022-08-12T00:54:57.877Z,2.38
2022-08-12T00:57:25.670Z,2.25
2022-08-12T00:59:55.029Z,2.33
2022-08-12T01:02:27.425Z,2.40
2022-08-12T01:05:21.218Z,2.20
2022-08-12T01:08:06.827Z,1.98
2022-08-12T01:10:55.049Z,1.90
2022-08-12T01:13:22.247Z,2.10
2022-08-12T01:15:56.923Z,2.03
2022-08-12T01:18:30.867Z,2.60
2022-08-12T01:21:10.099Z,2.17
2022-08-12T01:23:48.757Z,2.60
2022-08-12T01:26:26.198Z,2.30
2022-08-12T01:28:58.479Z,2.20
2022-08-12T01:31:27.025Z,1.90
2022-08-12T01:34:05.487Z,2.10
2022-08-12T01:36:57.770Z,2.50
2022-08-12T01:39:29.750Z,2.13
2022-08-12T01:42:03.183Z,2.17
2022-08-12T01:47:19.373Z,2.00
2022-08-12T01:50:26.495Z,2.50
2022-08-12T01:53:11.430Z,2.20
2022-08-12T01:55:40.693Z,2.75
2022-08-12T01:58:25.880Z,2.10
2022-08-12T02:01:07.774Z,1.77
2022-08-12T02:08:02.870Z,2.03
2022-08-12T02:10:57.950Z,2.65
2022-08-12T02:13:48.533Z,2.20
2022-08-12T02:16:31.691Z,1.90
2022-08-12T02:19:13.692Z,1.80
2022-08-12T02:21:58.797Z,2.10
2022-08-12T02:24:25.601Z,2.05
2022-08-12T02:26:55.747Z,2.33
2022-08-12T02:29:22.519Z,2.15
2022-08-12T02:31:49.347Z,2.55
2022-08-12T02:34:17.642Z,2.60
2022-08-12T02:36:44.912Z,2.50
2022-08-12T02:39:14.487Z,2.20
2022-08-12T02:41:43.864Z,2.42
2022-08-12T02:44:11.013Z,2.20
2022-08-12T02:46:37.849Z,2.20
2022-08-12T02:49:09.129Z,2.45
2022-08-12T02:51:40.557Z,2.00
2022-08-12T02:54:07.539Z,2.28
2022-08-12T02:56:40.519Z,2.17
2022-08-12T02:59:12.948Z,2.13
2022-08-12T03:01:53.612Z,2.08
2022-08-12T03:04:27.948Z,2.40
2022-08-12T03:07:59.788Z,1.92
2022-08-12T03:10:37.487Z,2.35
2022-08-12T03:13:07.300Z,2.45
2022-08-12T03:15:35.537Z,2.15
2022-08-12T03:18:24.938Z,2.20
2022-08-12T03:20:55.761Z,2.28
2022-08-12T03:23:30.063Z,2.10
2022-08-12T03:26:02.447Z,2.33
2022-08-12T03:28:49.577Z,2.00
2022-08-12T03:31:17.794Z,2.00
2022-08-12T03:33:54.026Z,2.10
2022-08-12T03:36:30.475Z,2.47
2022-08-12T03:39:36.599Z,2.30
2022-08-12T03:42:28.200Z,2.55
2022-08-12T03:45:35.870Z,2.10
2022-08-12T03:48:37.382Z,2.03
2022-08-12T03:51:22.952Z,2.20
2022-08-12T03:54:10.945Z,2.40
2022-08-12T03:56:56.791Z,2.10
2022-08-12T03:59:42.165Z,2.45
2022-08-12T04:02:14.567Z,2.05
2022-08-12T04:04:45.319Z,2.25
2022-08-12T04:07:12.848Z,2.72
2022-08-12T04:09:41.612Z,2.53
2022-08-12T04:12:27.403Z,2.13
2022-08-12T04:14:59.368Z,2.40
2022-08-12T04:17:28.029Z,2.28
2022-08-12T04:19:56.561Z,2.25
2022-08-12T04:22:25.724Z,2.50
2022-08-12T04:24:53.829Z,2.47
2022-08-12T04:27:20.854Z,2.13
2022-08-12T04:30:30.734Z,2.33
2022-08-12T04:32:35.250Z,2.33
2022-08-12T04:35:03.796Z,2.83
2022-08-12T04:37:30.642Z,2.60
2022-08-12T04:40:17.428Z,2.55
2022-08-12T04:42:56.111Z,1.98
2022-08-12T04:45:22.992Z,2.30
2022-08-12T04:47:49.793Z,2.25
2022-08-12T04:50:34.685Z,2.30
2022-08-12T04:53:08.200Z,2.50
2022-08-12T04:55:36.593Z,2.63
2022-08-12T04:58:03.517Z,2.30
2022-08-12T05:00:30.341Z,2.33
2022-08-12T05:02:57.207Z,2.42
2022-08-12T05:05:24.294Z,2.03
2022-08-12T05:12:09.829Z,2.25
2022-08-12T05:14:37.830Z,2.70
2022-08-12T05:17:06.568Z,2.13
2022-08-12T05:19:34.767Z,2.17
2022-08-12T05:22:04.161Z,2.38
2022-08-12T05:24:30.979Z,2.58
2022-08-12T05:26:57.864Z,2.70
2022-08-12T05:30:06.758Z,2.28
2022-08-12T05:32:11.512Z,2.20
2022-08-12T05:34:38.392Z,2.53
2022-08-12T05:37:05.188Z,2.70
2022-08-12T05:39:32.031Z,2.25
2022-08-12T05:41:58.908Z,2.60
2022-08-12T05:44:25.801Z,2.17
2022-08-12T05:46:52.592Z,2.78
2022-08-12T05:49:19.446Z,2.42
2022-08-12T05:51:46.348Z,2.58
2022-08-12T05:54:13.189Z,2.50
2022-08-12T05:56:41.609Z,2.70
2022-08-12T05:59:09.397Z,2.17
2022-08-12T06:02:09.684Z,2.45
2022-08-12T06:04:23.145Z,2.25
2022-08-12T06:06:53.449Z,2.67
2022-08-12T06:09:22.479Z,2.35
2022-08-12T06:12:04.607Z,2.08
2022-08-12T06:14:36.301Z,2.60
2022-08-12T06:17:04.492Z,2.30
2022-08-12T06:20:26.482Z,2.28
2022-08-12T06:22:18.425Z,2.72
2022-08-12T06:24:45.207Z,2.22
2022-08-12T06:27:12.941Z,2.10
2022-08-12T06:30:06.992Z,2.20
2022-08-12T06:32:28.483Z,2.65
2022-08-12T06:35:23.204Z,2.22
2022-08-12T06:37:50.356Z,2.35
2022-08-12T06:40:41.600Z,2.28
2022-08-12T06:43:08.422Z,2.38
2022-08-12T06:45:46.903Z,2.22
2022-08-12T06:48:14.089Z,2.05
2022-08-12T06:50:42.356Z,2.38
2022-08-12T06:53:09.445Z,2.30
2022-08-12T06:55:36.609Z,2.63
2022-08-12T06:58:08.295Z,2.35
2022-08-12T07:00:37.197Z,2.25
2022-08-12T07:03:16.332Z,2.17
2022-08-12T07:05:50.820Z,2.55
2022-08-12T07:08:18.056Z,2.67
2022-08-12T07:10:59.214Z,2.50
2022-08-12T07:13:35.863Z,2.28
2022-08-12T07:16:22.749Z,2.47
2022-08-12T07:18:53.859Z,2.72
2022-08-12T07:21:20.872Z,2.65
2022-08-12T07:23:47.832Z,2.60
2022-08-12T07:26:17.150Z,3.03
2022-08-12T07:28:44.155Z,2.72
2022-08-12T07:31:11.560Z,3.10
2022-08-12T07:33:39.941Z,2.55
2022-08-12T07:36:08.581Z,2.92
2022-08-12T07:38:37.148Z,3.00
2022-08-12T07:41:14.599Z,2.65
2022-08-12T07:43:48.522Z,2.50
2022-08-12T07:46:18.188Z,2.83
2022-08-12T07:48:48.886Z,2.20
2022-08-12T07:51:25.192Z,2.45
2022-08-12T07:54:00.170Z,2.28
2022-08-12T07:56:28.148Z,2.22
2022-08-12T07:58:55.087Z,2.47
2022-08-12T08:01:22.858Z,2.38
2022-08-12T08:04:10.033Z,2.88
2022-08-12T08:06:37.292Z,2.60
2022-08-12T08:09:04.742Z,2.50
2022-08-12T08:11:50.425Z,2.33
2022-08-12T08:14:29.465Z,2.05
2022-08-12T08:16:57.049Z,2.30
2022-08-12T08:19:24.104Z,2.30
2022-08-12T08:21:51.682Z,2.65
2022-08-12T08:24:18.702Z,2.35
2022-08-12T08:26:50.104Z,2.45
2022-08-12T08:29:17.573Z,2.47
2022-08-12T08:31:46.144Z,2.75
2022-08-12T08:34:27.526Z,2.42
2022-08-12T08:36:59.975Z,2.50
2022-08-12T08:39:31.950Z,2.67
2022-08-12T08:42:20.412Z,2.50
2022-08-12T08:44:49.676Z,2.60
2022-08-12T08:47:25.574Z,2.20
2022-08-12T08:49:52.630Z,2.65
2022-08-12T08:52:39.336Z,2.78
2022-08-12T08:55:13.951Z,2.33
2022-08-12T08:57:43.532Z,3.05
2022-08-12T09:00:18.618Z,2.63
2022-08-12T09:02:58.845Z,2.58
2022-08-12T09:05:27.501Z,2.72
2022-08-12T09:08:13.020Z,2.78
2022-08-12T09:10:45.212Z,2.40
2022-08-12T09:16:20.194Z,2.40
2022-08-12T09:18:52.592Z,2.30
2022-08-12T09:21:20.264Z,2.70
2022-08-12T09:24:00.887Z,2.72
2022-08-12T09:26:38.079Z,2.22
2022-08-12T09:29:18.331Z,2.53
2022-08-12T09:32:03.760Z,2.83
2022-08-12T09:34:33.946Z,2.90
2022-08-12T09:37:20.372Z,2.90
2022-08-12T09:40:05.161Z,3.20
2022-08-12T09:43:15.304Z,3.00
2022-08-12T09:46:11.024Z,2.63
2022-08-12T09:48:35.220Z,2.83
2022-08-12T09:51:03.848Z,2.78
2022-08-12T09:53:38.423Z,2.92
2022-08-12T09:56:57.090Z,2.72
2022-08-12T09:58:59.879Z,2.83
2022-08-12T10:01:35.750Z,2.95
2022-08-12T10:04:14.981Z,2.97
2022-08-12T10:06:54.029Z,2.78
2022-08-12T10:09:21.486Z,3.10
2022-08-12T10:12:11.854Z,2.95
2022-08-12T10:14:50.016Z,3.40
2022-08-12T10:17:21.534Z,2.30
2022-08-12T10:19:52.014Z,2.53
2022-08-12T10:22:39.960Z,2.80
2022-08-12T10:26:34.915Z,2.53
2022-08-12T10:28:32.135Z,2.75
2022-08-12T10:31:01.127Z,2.45
2022-08-12T10:33:31.419Z,2.63
2022-08-12T10:36:00.333Z,2.40
2022-08-12T10:38:38.305Z,2.38
2022-08-12T10:41:56.760Z,2.80
2022-08-12T10:44:17.361Z,2.78
2022-08-12T10:46:49.149Z,2.58
2022-08-12T10:50:05.311Z,2.83
2022-08-12T10:52:34.577Z,3.03
2022-08-12T10:54:52.515Z,2.70
2022-08-12T10:58:12.974Z,2.70
2022-08-12T11:00:34.111Z,2.63
2022-08-12T11:04:24.685Z,2.53
2022-08-12T11:07:09.476Z,2.60
2022-08-12T11:08:36.596Z,2.70
2022-08-12T11:11:14.009Z,2.30
2022-08-12T11:13:48.330Z,2.58
2022-08-12T11:16:22.078Z,2.80
2022-08-12T11:18:55.387Z,2.40
2022-08-12T11:21:39.546Z,2.67
2022-08-12T11:24:18.843Z,2.35
2022-08-12T11:30:05.715Z,2.67
2022-08-12T11:32:17.167Z,2.28
2022-08-12T11:34:53.663Z,2.25
2022-08-12T11:37:25.577Z,2.30
2022-08-12T11:42:35.832Z,2.53
2022-08-12T11:49:31.827Z,2.45
2022-08-12T11:52:03.816Z,2.25
2022-08-12T11:54:31.132Z,2.58
2022-08-12T11:57:02.351Z,2.22
2022-08-12T12:02:20.684Z,2.10
2022-08-12T12:04:53.110Z,2.42
2022-08-12T12:08:38.742Z,2.60
2022-08-12T12:10:15.213Z,2.00
2022-08-12T12:12:49.395Z,2.30
2022-08-12T12:15:25.132Z,2.10
2022-08-12T12:18:04.495Z,2.20
2022-08-12T12:20:31.379Z,2.35
2022-08-12T12:22:58.154Z,2.00
2022-08-12T12:26:07.211Z,2.22
2022-08-12T12:28:19.997Z,2.42
2022-08-12T12:30:59.880Z,1.75
2022-08-12T12:33:27.209Z,1.80
2022-08-12T12:36:20.283Z,2.10
2022-08-12T12:38:49.875Z,2.03
2022-08-12T12:41:17.222Z,1.80
2022-08-12T12:43:47.592Z,2.03
2022-08-12T12:46:31.145Z,1.75
2022-08-12T12:48:58.040Z,1.80
2022-08-12T12:51:49.163Z,2.15
2022-08-12T12:54:12.562Z,1.80
2022-08-12T12:56:42.963Z,1.90
2022-08-12T12:59:55.297Z,1.95
2022-08-12T13:02:02.011Z,1.80
2022-08-12T13:04:35.082Z,1.83
2022-08-12T13:07:05.922Z,1.88
2022-08-12T13:09:36.198Z,1.60
2022-08-12T13:12:53.268Z,1.77
2022-08-12T13:15:45.342Z,1.77
2022-08-12T13:18:07.369Z,2.00
2022-08-12T13:20:38.265Z,1.58
2022-08-12T13:23:37.328Z,1.80
2022-08-12T13:25:58.345Z,2.00
2022-08-12T13:28:29.786Z,1.80
2022-08-12T13:30:57.640Z,2.00
2022-08-12T13:33:28.497Z,1.60
2022-08-12T13:36:07.135Z,1.80
2022-08-12T13:38:44.402Z,1.70
2022-08-12T13:41:33.207Z,1.50
2022-08-12T13:44:00.768Z,1.80
2022-08-12T13:46:28.481Z,1.58
2022-08-12T13:48:56.444Z,1.70
2022-08-12T13:51:24.397Z,1.52
2022-08-12T13:53:58.947Z,1.50
2022-08-12T13:56:34.638Z,2.00
2022-08-12T13:59:03.046Z,2.00
2022-08-12T14:01:31.080Z,1.50
2022-08-12T14:04:04.330Z,1.63
2022-08-12T14:06:32.168Z,1.67
2022-08-12T14:08:59.600Z,1.48
2022-08-12T14:11:27.879Z,1.75
2022-08-12T14:14:06.127Z,1.90
2022-08-12T14:16:49.086Z,1.45
2022-08-12T14:19:24.250Z,1.60
2022-08-12T14:22:00.549Z,1.70
2022-08-12T14:24:35.603Z,1.70
2022-08-12T14:27:08.760Z,1.73
2022-08-12T14:30:04.018Z,1.67
2022-08-12T14:32:24.192Z,1.67
2022-08-12T14:34:51.610Z,1.70
2022-08-12T14:37:55.350Z,1.58
2022-08-12T14:40:06.497Z,1.42
2022-08-12T14:42:33.349Z,1.52
2022-08-12T14:45:02.169Z,1.17
2022-08-12T14:47:35.347Z,1.48
2022-08-12T14:50:58.381Z,1.60
2022-08-12T14:58:31.798Z,1.73
2022-08-12T15:01:17.476Z,1.85
2022-08-12T15:03:56.853Z,1.50
2022-08-12T15:06:43.755Z,1.33
2022-08-12T15:09:14.066Z,1.10
2022-08-12T15:11:54.653Z,1.50
2022-08-12T15:14:25.606Z,1.27
2022-08-12T15:16:53.432Z,1.45
2022-08-12T15:20:11.570Z,1.67
2022-08-12T15:22:37.373Z,1.85
2022-08-12T15:24:54.323Z,1.70
2022-08-12T15:27:22.401Z,1.30
2022-08-12T15:29:58.852Z,1.40
2022-08-12T15:32:32.198Z,1.52
2022-08-12T15:35:02.932Z,1.45
2022-08-12T15:38:09.203Z,1.50
2022-08-12T15:40:30.326Z,1.50
2022-08-12T15:42:59.592Z,1.48
2022-08-12T15:45:32.602Z,1.77
2022-08-12T15:48:16.227Z,1.85
2022-08-12T15:50:45.592Z,1.50
2022-08-12T15:53:15.274Z,1.60
2022-08-12T15:55:46.249Z,1.65
2022-08-12T15:58:16.935Z,1.50
2022-08-12T16:00:43.901Z,1.38
2022-08-12T16:03:14.199Z,1.40
2022-08-12T16:06:19.195Z,1.83
2022-08-12T16:08:36.450Z,1.50
2022-08-12T16:11:07.212Z,1.40
2022-08-12T16:13:44.290Z,1.27
2022-08-12T16:16:22.822Z,1.50
2022-08-12T16:18:52.762Z,1.30
2022-08-12T16:21:52.682Z,1.20
2022-08-12T16:24:11.595Z,1.55
2022-08-12T16:26:40.757Z,2.05
2022-08-12T16:29:15.406Z,1.60
2022-08-12T16:31:44.317Z,1.40
2022-08-12T16:34:40.176Z,1.35
2022-08-12T16:37:04.495Z,1.50
2022-08-12T16:40:01.229Z,1.30
2022-08-12T16:42:22.467Z,1.40
2022-08-12T16:44:49.849Z,1.35
2022-08-12T16:47:18.764Z,1.63
2022-08-12T16:49:46.716Z,1.52
2022-08-12T16:52:14.390Z,1.52
2022-08-12T16:54:44.210Z,1.48
2022-08-12T16:57:11.301Z,1.30
2022-08-12T16:59:54.406Z,1.27
2022-08-12T17:02:34.113Z,1.40
2022-08-12T17:05:03.792Z,1.75
2022-08-12T17:07:36.596Z,1.48
2022-08-12T17:10:12.003Z,1.40
2022-08-12T17:12:39.057Z,1.45
2022-08-12T17:15:51.274Z,1.50
2022-08-12T17:18:15.175Z,1.40
2022-08-12T17:20:48.837Z,1.45
2022-08-12T17:23:17.134Z,1.30
2022-08-12T17:25:50.377Z,1.30
2022-08-12T17:28:17.728Z,2.40
2022-08-12T17:30:44.920Z,1.60
2022-08-12T17:33:24.528Z,1.33
2022-08-12T17:35:52.014Z,1.33
2022-08-12T17:38:21.033Z,1.52
2022-08-12T17:40:48.135Z,1.40
2022-08-12T17:43:57.485Z,1.70
2022-08-12T17:46:03.400Z,1.45
2022-08-12T17:48:34.651Z,1.50
2022-08-12T17:51:07.090Z,1.27
2022-08-12T17:54:06.306Z,1.42
2022-08-12T17:56:22.046Z,1.50
2022-08-12T17:58:51.229Z,1.50
2022-08-12T18:01:25.712Z,1.35
2022-08-12T18:04:21.248Z,1.60
2022-08-12T18:06:49.221Z,2.00
2022-08-12T18:09:17.941Z,1.20
2022-08-12T18:12:07.808Z,1.10
2022-08-12T18:14:37.006Z,1.92
2022-08-12T18:17:08.896Z,1.73
2022-08-12T18:20:06.396Z,1.70
2022-08-12T18:22:30.960Z,1.52
2022-08-12T18:25:02.298Z,1.70
2022-08-12T18:27:42.112Z,1.63
2022-08-12T18:30:16.254Z,1.60
2022-08-12T18:32:59.126Z,1.60
2022-08-12T18:35:47.639Z,1.70
2022-08-12T18:38:18.649Z,1.85
2022-08-12T18:41:06.147Z,1.65
2022-08-12T18:43:35.009Z,1.70
2022-08-12T18:46:21.601Z,1.70
2022-08-12T18:48:54.374Z,1.67
2022-08-12T18:51:45.654Z,1.73
2022-08-12T18:54:10.787Z,1.50
2022-08-12T18:56:40.705Z,1.67
2022-08-12T18:59:07.566Z,1.77
2022-08-12T19:02:21.340Z,1.70
2022-08-12T19:04:29.603Z,1.50
2022-08-12T19:06:57.647Z,1.50
2022-08-12T19:09:38.737Z,1.85
2022-08-12T19:12:40.748Z,1.67
2022-08-12T19:15:08.330Z,1.55
2022-08-12T19:17:47.303Z,1.55
2022-08-12T19:20:23.538Z,1.65
2022-08-12T19:23:00.066Z,1.90
2022-08-12T19:26:01.389Z,1.75
2022-08-12T19:28:29.563Z,1.45
2022-08-12T19:31:17.411Z,1.67
2022-08-12T19:34:00.889Z,1.90
2022-08-12T19:36:31.753Z,1.50
2022-08-12T19:38:59.728Z,2.03
2022-08-12T19:41:34.449Z,1.90
2022-08-12T19:44:18.601Z,1.98
2022-08-12T19:46:51.975Z,1.50
2022-08-12T19:49:22.427Z,1.88
2022-08-12T19:51:52.263Z,1.75
2022-08-12T19:54:22.934Z,1.75
2022-08-12T19:56:52.235Z,1.90
2022-08-12T19:59:43.529Z,1.67
2022-08-12T20:02:31.324Z,1.98
2022-08-12T20:06:03.411Z,1.63
2022-08-12T20:07:57.038Z,1.95
2022-08-12T20:10:35.550Z,1.80
2022-08-12T20:13:18.543Z,2.08
2022-08-12T20:15:59.712Z,1.92
2022-08-12T20:18:53.156Z,1.83
2022-08-12T20:21:16.321Z,1.63
2022-08-12T20:24:00.440Z,1.65
2022-08-12T20:26:28.198Z,1.83
2022-08-12T20:28:55.483Z,2.00
2022-08-12T20:31:22.311Z,1.92
2022-08-12T20:33:56.857Z,1.90
2022-08-12T20:36:41.747Z,2.13
2022-08-12T20:39:33.797Z,2.00
2022-08-12T20:42:02.371Z,2.10
2022-08-12T20:44:33.228Z,1.60
2022-08-12T20:47:18.422Z,2.53
2022-08-12T20:49:54.810Z,1.90
2022-08-12T20:52:25.300Z,1.67
2022-08-12T20:54:52.272Z,1.70
2022-08-12T20:57:20.248Z,1.73
2022-08-12T20:59:49.461Z,1.80
2022-08-12T21:02:24.385Z,1.80
2022-08-12T21:05:19.918Z,2.53
2022-08-12T21:07:52.076Z,1.88
2022-08-12T21:10:20.571Z,1.63
2022-08-12T21:12:48.351Z,1.58
2022-08-12T21:15:23.018Z,1.73
2022-08-12T21:18:11.047Z,1.90
2022-08-12T21:20:54.748Z,2.05
2022-08-12T21:23:22.716Z,1.77
2022-08-12T21:25:52.510Z,1.95
2022-08-12T21:28:20.659Z,1.85
2022-08-12T21:31:10.411Z,2.00
2022-08-12T21:33:58.919Z,2.10
2022-08-12T21:36:32.440Z,1.88
2022-08-12T21:39:19.181Z,1.85
2022-08-12T21:41:51.100Z,1.92
2022-08-12T21:44:24.025Z,1.65
2022-08-12T21:47:21.796Z,1.83
2022-08-12T21:52:34.013Z,2.03
2022-08-12T21:55:18.445Z,1.50
2022-08-12T21:57:51.286Z,1.60
2022-08-12T22:00:31.760Z,1.60
2022-08-12T22:03:30.278Z,1.83
2022-08-12T22:06:31.351Z,1.45
2022-08-12T22:09:08.990Z,1.80
2022-08-12T22:11:44.018Z,1.95
2022-08-12T22:14:21.384Z,1.60
2022-08-12T22:16:49.795Z,2.00
2022-08-12T22:19:19.280Z,1.77
2022-08-12T22:21:53.506Z,1.73
2022-08-12T22:24:26.381Z,1.70
2022-08-12T22:26:57.378Z,1.60
2022-08-12T22:29:43.316Z,1.50
2022-08-12T22:32:11.574Z,1.70
2022-08-12T22:34:39.223Z,1.60
2022-08-12T22:37:11.102Z,1.90
2022-08-12T22:39:43.905Z,1.63
2022-08-12T22:42:30.726Z,1.75
2022-08-12T22:45:16.780Z,1.80
2022-08-12T22:47:53.863Z,1.63
2022-08-12T22:50:27.114Z,1.48
2022-08-12T22:53:17.175Z,1.60
2022-08-12T22:56:00.286Z,1.20
2022-08-12T22:58:33.524Z,1.45
2022-08-12T23:01:02.342Z,1.40
2022-08-12T23:03:49.192Z,1.10
2022-08-12T23:06:21.950Z,1.30
2022-08-12T23:08:48.841Z,1.35
2022-08-12T23:11:17.209Z,1.50
2022-08-12T23:13:56.363Z,1.20
2022-08-12T23:16:31.202Z,1.35
2022-08-12T23:19:09.894Z,1.20
2022-08-12T23:22:04.326Z,1.17
2022-08-12T23:24:36.794Z,1.17
2022-08-12T23:27:24.903Z,1.27
2022-08-12T23:30:18.345Z,0.98
2022-08-12T23:32:54.230Z,1.15
2022-08-12T23:35:22.558Z,1.00
2022-08-12T23:37:53.762Z,1.27
2022-08-12T23:40:22.540Z,0.95
2022-08-12T23:42:54.169Z,1.20
2022-08-12T23:45:31.485Z,0.80
2022-08-12T23:47:59.900Z,0.95
2022-08-12T23:50:33.759Z,2.20
2022-08-12T23:53:05.687Z,1.20
2022-08-12T23:55:35.929Z,1.10
2022-08-12T23:58:22.746Z,1.17
